createdAt,value
2017-07-28T00:02:23.943Z,90.90
2017-07-28T00:04:52.209Z,91.00
2017-07-28T00:07:20.533Z,91.10
2017-07-28T00:09:48.791Z,90.90
2017-07-28T00:12:17.059Z,90.90
2017-07-28T00:14:46.141Z,91.30
2017-07-28T00:17:15.179Z,90.90
2017-07-28T00:19:43.441Z,90.90
2017-07-28T00:22:11.908Z,91.10
2017-07-28T00:24:40.175Z,91.00
2017-07-28T00:27:08.448Z,91.00
2017-07-28T00:29:36.749Z,91.00
2017-07-28T00:32:05.783Z,90.90
2017-07-28T00:34:34.049Z,90.90
2017-07-28T00:37:02.343Z,90.70
2017-07-28T00:39:31.417Z,90.80
2017-07-28T00:41:59.667Z,90.80
2017-07-28T00:44:27.989Z,90.90
2017-07-28T00:46:56.251Z,91.30
2017-07-28T00:49:24.523Z,91.70
2017-07-28T00:51:52.825Z,92.00
2017-07-28T00:54:21.847Z,92.20
2017-07-28T00:56:50.117Z,92.10
2017-07-28T00:59:18.419Z,92.10
2017-07-28T01:01:47.456Z,92.10
2017-07-28T01:04:15.719Z,92.10
2017-07-28T01:06:44.032Z,92.00
2017-07-28T01:09:13.059Z,91.60
2017-07-28T01:11:41.324Z,91.50
2017-07-28T01:14:09.624Z,91.20
2017-07-28T01:16:38.655Z,91.10
2017-07-28T01:19:06.916Z,91.10
2017-07-28T01:21:35.216Z,90.80
2017-07-28T01:24:03.480Z,90.80
2017-07-28T01:26:31.743Z,90.90
2017-07-28T01:29:00.068Z,91.00
2017-07-28T01:31:28.335Z,91.20
2017-07-28T01:33:56.591Z,91.30
2017-07-28T01:36:24.892Z,91.50
2017-07-28T01:38:53.944Z,91.30
2017-07-28T01:41:22.200Z,91.50
2017-07-28T01:43:50.528Z,91.30
2017-07-28T01:46:18.792Z,91.50
2017-07-28T01:48:47.077Z,91.30
2017-07-28T01:51:15.399Z,91.40
2017-07-28T01:53:44.429Z,91.20
2017-07-28T01:56:12.695Z,91.20
2017-07-28T01:58:41.091Z,91.40
2017-07-28T02:01:09.364Z,91.10
2017-07-28T02:03:38.021Z,91.60
2017-07-28T02:06:07.085Z,90.80
2017-07-28T02:08:36.852Z,90.60
2017-07-28T02:11:05.107Z,90.60
2017-07-28T02:13:33.412Z,90.60
2017-07-28T02:16:02.459Z,90.80
2017-07-28T02:18:30.728Z,90.60
2017-07-28T02:20:59.056Z,90.40
2017-07-28T02:23:27.337Z,90.60
2017-07-28T02:25:55.779Z,90.50
2017-07-28T02:28:24.079Z,90.30
2017-07-28T02:30:52.348Z,90.40
2017-07-28T02:33:20.611Z,90.60
2017-07-28T02:35:48.916Z,90.70
2017-07-28T02:38:17.184Z,90.80
2017-07-28T02:40:45.472Z,90.70
2017-07-28T02:43:13.791Z,90.80
2017-07-28T02:45:42.067Z,90.90
2017-07-28T02:48:10.327Z,91.00
2017-07-28T02:50:38.765Z,91.00
2017-07-28T02:53:07.796Z,90.80
2017-07-28T02:55:36.976Z,90.70
2017-07-28T02:58:05.284Z,90.70
2017-07-28T03:00:34.324Z,90.80
2017-07-28T03:03:02.595Z,90.80
2017-07-28T03:05:30.899Z,90.90
2017-07-28T03:07:59.932Z,91.00
2017-07-28T03:10:28.203Z,91.00
2017-07-28T03:12:56.708Z,90.80
2017-07-28T03:15:24.972Z,90.90
2017-07-28T03:17:53.239Z,90.70
2017-07-28T03:20:21.544Z,90.80
2017-07-28T03:22:49.807Z,90.80
2017-07-28T03:25:18.083Z,90.50
2017-07-28T03:27:46.392Z,90.70
2017-07-28T03:30:14.695Z,90.70
2017-07-28T03:32:42.968Z,90.40
2017-07-28T03:35:11.260Z,90.30
2017-07-28T03:37:39.522Z,90.30
2017-07-28T03:40:07.807Z,90.00
2017-07-28T03:42:36.099Z,90.00
2017-07-28T03:45:04.371Z,90.30
2017-07-28T03:47:32.632Z,90.30
2017-07-28T03:50:00.945Z,89.90
2017-07-28T03:52:29.205Z,89.80
2017-07-28T03:54:57.468Z,89.80
2017-07-28T03:57:25.771Z,89.20
2017-07-28T03:59:54.047Z,89.00
2017-07-28T04:02:22.313Z,89.20
2017-07-28T04:04:50.629Z,89.80
2017-07-28T04:07:18.955Z,90.00
2017-07-28T04:09:47.223Z,88.90
2017-07-28T04:12:15.519Z,88.90
2017-07-28T04:14:44.040Z,88.40
2017-07-28T04:17:13.086Z,88.40
2017-07-28T04:19:41.383Z,88.20
2017-07-28T04:22:10.412Z,85.40
2017-07-28T04:24:38.673Z,85.40
2017-07-28T04:27:06.963Z,86.30
2017-07-28T04:29:35.223Z,86.40
2017-07-28T04:32:03.496Z,85.80
2017-07-28T04:34:32.676Z,87.20
2017-07-28T04:37:01.703Z,85.90
2017-07-28T04:39:29.967Z,86.20
2017-07-28T04:41:58.272Z,86.20
2017-07-28T04:44:26.540Z,87.20
2017-07-28T04:46:55.602Z,87.30
2017-07-28T04:49:23.907Z,86.90
2017-07-28T04:51:52.175Z,87.30
2017-07-28T04:54:20.548Z,87.40
2017-07-28T04:56:48.856Z,86.20
2017-07-28T04:59:17.120Z,86.10
2017-07-28T05:01:45.393Z,86.20
2017-07-28T05:04:14.460Z,86.30
2017-07-28T05:06:42.739Z,86.20
2017-07-28T05:09:11.768Z,85.80
2017-07-28T05:11:40.072Z,85.70
2017-07-28T05:14:09.104Z,86.20
2017-07-28T05:16:37.364Z,86.10
2017-07-28T05:19:05.667Z,85.80
2017-07-28T05:21:33.928Z,85.30
2017-07-28T05:24:02.197Z,86.10
2017-07-28T05:26:31.260Z,85.20
2017-07-28T05:28:59.541Z,85.20
2017-07-28T05:31:28.567Z,85.70
2017-07-28T05:33:56.863Z,85.60
2017-07-28T05:36:25.131Z,86.10
2017-07-28T05:38:54.172Z,85.40
2017-07-28T05:41:22.765Z,85.20
2017-07-28T05:43:51.050Z,85.60
2017-07-28T05:46:19.299Z,85.60
2017-07-28T05:48:47.623Z,86.00
2017-07-28T05:51:15.895Z,85.20
2017-07-28T05:53:44.167Z,84.50
2017-07-28T05:56:12.475Z,84.10
2017-07-28T05:58:40.748Z,84.20
2017-07-28T06:01:09.008Z,83.60
2017-07-28T06:03:37.316Z,85.20
2017-07-28T06:06:05.587Z,84.80
2017-07-28T06:08:33.860Z,82.60
2017-07-28T06:11:02.959Z,82.50
2017-07-28T06:13:31.219Z,82.20
2017-07-28T06:15:59.488Z,82.60
2017-07-28T06:21:02.404Z,83.60
2017-07-28T06:23:30.731Z,80.30
2017-07-28T06:25:59.000Z,79.20
2017-07-28T06:28:27.276Z,79.90
2017-07-28T06:30:55.576Z,80.40
2017-07-28T06:33:24.029Z,81.00
2017-07-28T06:35:52.287Z,78.60
2017-07-28T06:38:20.601Z,80.10
2017-07-28T06:40:48.871Z,78.60
2017-07-28T06:43:17.136Z,78.30
2017-07-28T06:45:45.439Z,79.50
2017-07-28T06:48:13.707Z,77.90
2017-07-28T06:50:41.991Z,78.90
2017-07-28T06:53:11.079Z,79.10
2017-07-28T06:55:39.352Z,79.10
2017-07-28T06:58:07.628Z,76.40
2017-07-28T07:00:35.927Z,75.90
2017-07-28T07:03:04.204Z,75.70
2017-07-28T07:05:33.232Z,72.90
2017-07-28T07:08:01.522Z,72.80
2017-07-28T07:10:29.787Z,70.80
2017-07-28T07:12:58.060Z,70.10
2017-07-28T07:15:27.139Z,69.70
2017-07-28T07:17:56.172Z,70.30
2017-07-28T07:20:24.431Z,70.30
2017-07-28T07:22:52.740Z,71.60
2017-07-28T07:25:20.995Z,71.90
2017-07-28T07:27:49.259Z,71.30
2017-07-28T07:30:18.539Z,68.50
2017-07-28T07:32:46.808Z,68.00
2017-07-28T07:35:15.839Z,64.10
2017-07-28T07:37:44.161Z,64.10
2017-07-28T07:40:13.196Z,60.80
2017-07-28T07:42:41.470Z,60.70
2017-07-28T07:45:09.875Z,60.80
2017-07-28T07:47:38.188Z,61.50
2017-07-28T07:50:06.452Z,60.10
2017-07-28T07:52:34.770Z,60.60
2017-07-28T07:55:03.042Z,59.90
2017-07-28T07:57:31.309Z,57.90
2017-07-28T07:59:59.636Z,55.90
2017-07-28T08:02:28.672Z,55.30
2017-07-28T08:04:56.931Z,55.30
2017-07-28T08:07:25.218Z,54.20
2017-07-28T08:09:54.280Z,55.00
2017-07-28T08:12:23.064Z,54.30
2017-07-28T08:14:51.547Z,53.40
2017-07-28T08:17:19.864Z,55.90
2017-07-28T08:19:48.128Z,52.10
2017-07-28T08:22:16.418Z,52.60
2017-07-28T08:24:44.684Z,52.80
2017-07-28T08:27:12.944Z,51.10
2017-07-28T08:29:41.282Z,51.10
2017-07-28T08:32:09.537Z,51.60
2017-07-28T08:34:37.804Z,53.80
2017-07-28T08:37:06.116Z,53.30
2017-07-28T08:39:34.403Z,50.40
2017-07-28T08:42:02.671Z,49.30
2017-07-28T08:44:31.183Z,51.00
2017-07-28T08:46:59.450Z,49.50
2017-07-28T08:49:28.483Z,50.50
2017-07-28T08:51:56.793Z,49.80
2017-07-28T08:54:25.824Z,49.00
2017-07-28T08:56:54.096Z,48.90
2017-07-28T08:59:22.387Z,51.50
2017-07-28T09:01:51.415Z,46.10
2017-07-28T09:04:19.684Z,46.00
2017-07-28T09:06:48.096Z,46.90
2017-07-28T09:09:17.128Z,47.80
2017-07-28T09:11:45.392Z,47.70
2017-07-28T09:14:14.408Z,48.50
2017-07-28T09:16:43.455Z,47.20
2017-07-28T09:19:11.724Z,47.70
2017-07-28T09:21:40.017Z,47.50
2017-07-28T09:24:09.043Z,48.20
2017-07-28T09:26:37.307Z,48.00
2017-07-28T09:29:05.601Z,47.90
2017-07-28T09:31:33.869Z,48.70
2017-07-28T09:34:02.132Z,46.80
2017-07-28T09:36:30.435Z,43.70
2017-07-28T09:38:58.700Z,44.00
2017-07-28T09:41:26.972Z,43.80
2017-07-28T09:43:55.287Z,44.00
2017-07-28T09:46:24.315Z,46.00
2017-07-28T09:48:52.584Z,46.00
2017-07-28T09:51:20.888Z,45.90
2017-07-28T09:53:49.923Z,45.30
2017-07-28T09:56:18.179Z,45.20
2017-07-28T09:58:46.496Z,42.60
2017-07-28T10:01:15.533Z,45.40
2017-07-28T10:03:43.808Z,45.30
2017-07-28T10:06:12.619Z,41.60
2017-07-28T10:08:40.882Z,42.20
2017-07-28T10:11:09.276Z,42.90
2017-07-28T10:13:37.579Z,42.30
2017-07-28T10:16:06.615Z,41.80
2017-07-28T10:18:34.888Z,41.60
2017-07-28T10:21:03.183Z,41.30
2017-07-28T10:23:32.220Z,41.30
2017-07-28T10:26:00.483Z,41.10
2017-07-28T10:28:28.787Z,41.60
2017-07-28T10:30:57.824Z,39.30
2017-07-28T10:33:26.092Z,39.20
2017-07-28T10:35:54.412Z,40.10
2017-07-28T10:38:22.675Z,40.40
2017-07-28T10:40:50.951Z,38.10
2017-07-28T10:43:19.247Z,41.80
2017-07-28T10:45:47.514Z,47.30
2017-07-28T10:48:15.784Z,43.20
2017-07-28T10:50:44.103Z,42.20
2017-07-28T10:53:12.370Z,39.70
2017-07-28T10:55:40.643Z,39.90
2017-07-28T10:58:08.965Z,41.50
2017-07-28T11:00:37.251Z,40.50
2017-07-28T11:03:05.527Z,39.80
2017-07-28T11:05:34.134Z,39.30
2017-07-28T11:08:03.176Z,38.50
2017-07-28T11:10:31.456Z,38.50
2017-07-28T11:12:59.751Z,40.10
2017-07-28T11:15:28.028Z,40.80
2017-07-28T11:17:56.279Z,41.80
2017-07-28T11:20:24.577Z,41.80
2017-07-28T11:22:52.844Z,42.60
2017-07-28T11:25:21.136Z,42.20
2017-07-28T11:27:50.213Z,43.40
2017-07-28T11:30:18.484Z,42.70
2017-07-28T11:32:47.524Z,43.60
2017-07-28T11:35:15.831Z,43.50
2017-07-28T11:37:44.859Z,46.00
2017-07-28T11:40:13.896Z,43.20
2017-07-28T11:42:42.980Z,43.10
2017-07-28T11:45:11.248Z,43.00
2017-07-28T11:47:39.527Z,43.40
2017-07-28T11:50:07.852Z,42.50
2017-07-28T11:52:36.892Z,41.70
2017-07-28T11:55:05.959Z,39.50
2017-07-28T11:57:34.273Z,39.30
2017-07-28T12:00:03.309Z,40.20
2017-07-28T12:02:40.420Z,40.10
2017-07-28T12:05:09.458Z,40.70
2017-07-28T12:07:38.016Z,40.70
2017-07-28T12:10:06.338Z,41.40
2017-07-28T12:12:34.609Z,44.20
2017-07-28T12:15:02.876Z,43.30
2017-07-28T12:17:31.191Z,40.00
2017-07-28T12:20:00.036Z,43.10
2017-07-28T12:22:28.299Z,39.70
2017-07-28T12:24:56.629Z,39.20
2017-07-28T12:27:24.902Z,39.30
2017-07-28T12:29:53.167Z,40.10
2017-07-28T12:32:21.498Z,38.70
2017-07-28T12:34:50.532Z,40.40
2017-07-28T12:37:18.808Z,40.30
2017-07-28T12:39:47.204Z,41.20
2017-07-28T12:42:16.238Z,42.30
2017-07-28T12:44:44.504Z,42.10
2017-07-28T12:47:12.812Z,42.60
2017-07-28T12:49:41.224Z,42.40
2017-07-28T12:52:09.496Z,45.70
2017-07-28T12:54:37.807Z,43.70
2017-07-28T12:57:06.072Z,43.10
2017-07-28T12:59:34.344Z,44.20
2017-07-28T13:02:02.660Z,44.20
2017-07-28T13:04:30.927Z,41.20
2017-07-28T13:06:59.955Z,42.90
2017-07-28T13:09:28.260Z,43.00
2017-07-28T13:11:56.768Z,41.10
2017-07-28T13:14:25.044Z,42.50
2017-07-28T13:16:53.343Z,40.50
2017-07-28T13:19:21.612Z,42.70
2017-07-28T13:21:50.643Z,42.20
2017-07-28T13:24:18.947Z,42.10
2017-07-28T13:26:47.221Z,42.00
2017-07-28T13:29:16.243Z,41.10
2017-07-28T13:31:44.547Z,41.10
2017-07-28T13:34:12.816Z,44.40
2017-07-28T13:36:41.340Z,41.90
2017-07-28T13:39:09.631Z,41.80
2017-07-28T13:41:37.900Z,39.80
2017-07-28T13:44:06.168Z,39.70
2017-07-28T13:46:40.993Z,39.10
2017-07-28T13:49:10.036Z,38.00
2017-07-28T13:51:38.304Z,38.00
2017-07-28T13:54:06.632Z,37.10
2017-07-28T13:56:34.899Z,38.00
2017-07-28T13:59:03.184Z,38.10
2017-07-28T14:01:31.479Z,39.90
2017-07-28T14:04:00.520Z,40.80
2017-07-28T14:06:28.792Z,40.50
2017-07-28T14:08:57.117Z,37.40
2017-07-28T14:11:25.383Z,38.50
2017-07-28T14:13:53.656Z,38.30
2017-07-28T14:16:21.980Z,38.60
2017-07-28T14:18:50.244Z,38.10
2017-07-28T14:21:18.519Z,35.80
2017-07-28T14:23:46.832Z,36.70
2017-07-28T14:26:15.109Z,36.60
2017-07-28T14:28:44.139Z,35.80
2017-07-28T14:31:12.856Z,35.10
2017-07-28T14:33:41.887Z,38.00
2017-07-28T14:36:10.172Z,38.00
2017-07-28T14:38:38.460Z,37.80
2017-07-28T14:41:07.499Z,38.50
2017-07-28T14:43:35.772Z,38.50
2017-07-28T14:46:04.091Z,38.10
2017-07-28T14:48:32.359Z,37.90
2017-07-28T14:51:00.636Z,39.60
2017-07-28T14:53:28.977Z,35.60
2017-07-28T14:55:57.240Z,37.00
2017-07-28T14:58:25.516Z,37.30
2017-07-28T15:00:53.833Z,37.00
2017-07-28T15:03:22.868Z,40.00
2017-07-28T15:05:51.130Z,40.00
2017-07-28T15:08:19.449Z,39.40
2017-07-28T15:10:47.735Z,40.00
2017-07-28T15:13:15.999Z,39.80
2017-07-28T15:15:44.399Z,40.40
2017-07-28T15:18:12.675Z,40.50
2017-07-28T15:20:41.711Z,42.30
2017-07-28T15:23:10.935Z,41.50
2017-07-28T15:25:39.976Z,41.20
2017-07-28T15:28:08.239Z,41.00
2017-07-28T15:30:36.548Z,41.10
2017-07-28T15:33:05.579Z,42.00
2017-07-28T15:35:33.843Z,42.00
2017-07-28T15:38:02.280Z,42.20
2017-07-28T15:40:30.552Z,40.20
2017-07-28T15:42:59.136Z,42.20
2017-07-28T15:45:27.432Z,40.40
2017-07-28T15:47:57.044Z,38.10
2017-07-28T15:50:26.099Z,38.50
2017-07-28T15:52:54.480Z,38.50
2017-07-28T15:55:23.508Z,37.30
2017-07-28T15:57:51.767Z,37.30
2017-07-28T16:00:20.098Z,36.90
2017-07-28T16:02:48.370Z,37.40
2017-07-28T16:05:16.643Z,37.20
2017-07-28T16:07:44.950Z,36.90
2017-07-28T16:10:13.227Z,37.60
2017-07-28T16:12:42.268Z,38.00
2017-07-28T16:15:10.759Z,38.00
2017-07-28T16:17:39.791Z,38.10
2017-07-28T16:20:08.064Z,37.80
2017-07-28T16:22:36.367Z,40.90
2017-07-28T16:25:05.408Z,40.70
2017-07-28T16:27:33.685Z,40.60
2017-07-28T16:30:01.984Z,39.50
2017-07-28T16:32:30.441Z,41.40
2017-07-28T16:34:59.471Z,40.00
2017-07-28T16:37:28.288Z,39.90
2017-07-28T16:39:56.548Z,40.90
2017-07-28T16:42:25.591Z,39.40
2017-07-28T16:44:53.904Z,39.40
2017-07-28T16:47:22.180Z,41.90
2017-07-28T16:49:50.448Z,40.40
2017-07-28T16:52:18.759Z,40.30
2017-07-28T16:54:47.248Z,41.40
2017-07-28T16:57:16.275Z,42.40
2017-07-28T16:59:44.584Z,42.40
2017-07-28T17:02:15.320Z,41.80
2017-07-28T17:04:43.615Z,41.80
2017-07-28T17:07:11.900Z,42.40
2017-07-28T17:09:40.175Z,41.50
2017-07-28T17:12:08.493Z,41.80
2017-07-28T17:14:36.763Z,42.20
2017-07-28T17:17:05.023Z,43.70
2017-07-28T17:19:33.333Z,42.50
2017-07-28T17:22:02.368Z,42.90
2017-07-28T17:24:30.644Z,42.90
2017-07-28T17:26:58.943Z,44.50
2017-07-28T17:29:27.212Z,43.80
2017-07-28T17:31:55.511Z,43.20
2017-07-28T17:34:23.807Z,43.40
2017-07-28T17:36:52.076Z,43.40
2017-07-28T17:39:21.107Z,42.70
2017-07-28T17:41:49.608Z,42.80
2017-07-28T17:44:17.880Z,43.30
2017-07-28T17:46:46.912Z,45.10
2017-07-28T17:49:15.237Z,45.00
2017-07-28T17:51:44.271Z,43.20
2017-07-28T17:54:12.553Z,43.30
2017-07-28T17:56:40.859Z,45.20
2017-07-28T17:59:09.132Z,45.80
2017-07-28T18:01:37.403Z,44.40
2017-07-28T18:04:05.813Z,45.30
2017-07-28T18:06:34.843Z,46.50
2017-07-28T18:09:03.108Z,46.00
2017-07-28T18:11:31.415Z,46.00
2017-07-28T18:14:00.439Z,46.00
2017-07-28T18:16:28.723Z,46.00
2017-07-28T18:18:57.013Z,45.90
2017-07-28T18:21:26.044Z,46.60
2017-07-28T18:23:54.311Z,46.50
2017-07-28T18:26:22.659Z,47.10
2017-07-28T18:28:51.172Z,49.60
2017-07-28T18:31:19.448Z,48.80
2017-07-28T18:33:48.524Z,48.20
2017-07-28T18:36:17.575Z,48.40
2017-07-28T18:38:45.850Z,48.40
2017-07-28T18:41:14.148Z,49.10
2017-07-28T18:43:42.411Z,48.90
2017-07-28T18:46:10.680Z,49.00
2017-07-28T18:48:38.984Z,49.20
2017-07-28T18:51:07.255Z,50.90
2017-07-28T18:53:35.531Z,50.50
2017-07-28T18:56:04.614Z,51.40
2017-07-28T18:58:33.836Z,51.60
2017-07-28T19:01:02.108Z,51.60
2017-07-28T19:03:30.427Z,52.40
2017-07-28T19:05:59.459Z,52.80
2017-07-28T19:08:27.747Z,52.80
2017-07-28T19:10:56.047Z,53.60
2017-07-28T19:13:24.316Z,53.80
2017-07-28T19:15:52.580Z,54.90
2017-07-28T19:18:20.883Z,55.60
2017-07-28T19:20:49.168Z,54.80
2017-07-28T19:23:18.195Z,55.70
2017-07-28T19:25:46.500Z,55.60
2017-07-28T19:28:14.776Z,56.40
2017-07-28T19:30:43.059Z,55.70
2017-07-28T19:33:11.377Z,55.90
2017-07-28T19:35:39.652Z,56.90
2017-07-28T19:38:07.911Z,57.50
2017-07-28T19:40:36.215Z,57.30
2017-07-28T19:43:04.479Z,57.60
2017-07-28T19:45:32.747Z,58.70
2017-07-28T19:48:01.047Z,58.70
2017-07-28T19:50:29.344Z,59.20
2017-07-28T19:52:58.375Z,59.80
2017-07-28T19:55:26.863Z,59.80
2017-07-28T19:57:55.903Z,61.50
2017-07-28T20:00:24.171Z,61.30
2017-07-28T20:02:52.480Z,62.10
2017-07-28T20:05:21.513Z,64.10
2017-07-28T20:07:49.809Z,64.10
2017-07-28T20:10:18.127Z,63.60
2017-07-28T20:12:46.398Z,64.70
2017-07-28T20:15:14.727Z,65.30
2017-07-28T20:17:43.047Z,65.80
2017-07-28T20:20:11.328Z,66.70
2017-07-28T20:22:40.379Z,66.70
2017-07-28T20:25:08.671Z,66.70
2017-07-28T20:27:37.703Z,67.70
2017-07-28T20:30:05.976Z,67.70
2017-07-28T20:32:34.287Z,68.20
2017-07-28T20:35:02.559Z,68.60
2017-07-28T20:37:30.832Z,69.50
2017-07-28T20:39:59.140Z,69.90
2017-07-28T20:42:27.411Z,69.90
2017-07-28T20:44:56.444Z,70.80
2017-07-28T20:47:24.740Z,70.30
2017-07-28T20:49:53.015Z,70.50
2017-07-28T20:52:22.057Z,71.30
2017-07-28T20:54:50.368Z,71.20
2017-07-28T20:57:18.636Z,71.40
2017-07-28T20:59:46.903Z,71.80
2017-07-28T21:02:15.220Z,73.30
2017-07-28T21:04:43.499Z,73.30
2017-07-28T21:07:12.542Z,73.30
2017-07-28T21:09:40.820Z,73.20
2017-07-28T21:12:09.308Z,73.30
2017-07-28T21:14:37.595Z,74.10
2017-07-28T21:17:05.909Z,73.50
2017-07-28T21:22:09.610Z,73.80
2017-07-28T21:24:37.881Z,73.00
2017-07-28T21:27:06.919Z,73.60
2017-07-28T21:29:35.231Z,73.60
2017-07-28T21:32:03.515Z,73.50
2017-07-28T21:34:31.807Z,73.50
2017-07-28T21:37:00.105Z,74.50
2017-07-28T21:39:29.139Z,75.80
2017-07-28T21:41:58.416Z,75.70
2017-07-28T21:44:26.726Z,75.80
2017-07-28T21:46:55.755Z,78.20
2017-07-28T21:49:24.251Z,77.50
2017-07-28T21:51:53.043Z,77.90
2017-07-28T21:54:21.304Z,77.90
2017-07-28T21:56:50.354Z,77.90
2017-07-28T21:59:18.638Z,77.90
2017-07-28T22:01:46.905Z,77.90
2017-07-28T22:04:15.936Z,78.10
2017-07-28T22:06:44.263Z,77.90
2017-07-28T22:09:13.305Z,77.90
2017-07-28T22:11:41.567Z,77.90
2017-07-28T22:14:09.883Z,77.90
2017-07-28T22:16:38.151Z,77.90
2017-07-28T22:19:06.415Z,77.80
2017-07-28T22:21:35.315Z,78.10
2017-07-28T22:24:03.609Z,78.40
2017-07-28T22:26:31.873Z,78.60
2017-07-28T22:29:00.953Z,79.20
2017-07-28T22:31:30.016Z,78.40
2017-07-28T22:33:58.276Z,78.70
2017-07-28T22:36:26.583Z,78.20
2017-07-28T22:38:54.858Z,78.20
2017-07-28T22:41:23.148Z,78.00
2017-07-28T22:43:51.452Z,76.70
2017-07-28T22:46:19.729Z,78.10
2017-07-28T22:48:47.996Z,78.00
2017-07-28T22:51:16.420Z,78.10
2017-07-28T22:53:45.468Z,77.50
2017-07-28T22:56:13.743Z,77.30
2017-07-28T22:58:42.036Z,76.20
2017-07-28T23:01:11.072Z,74.50
2017-07-28T23:03:40.140Z,74.70
2017-07-28T23:06:08.471Z,74.70
2017-07-28T23:08:36.748Z,74.40
2017-07-28T23:11:05.011Z,75.50
2017-07-28T23:13:33.542Z,75.60
2017-07-28T23:16:01.801Z,74.50
2017-07-28T23:18:30.836Z,73.30
2017-07-28T23:21:00.051Z,73.20
2017-07-28T23:23:28.329Z,74.10
2017-07-28T23:25:57.372Z,74.00
2017-07-28T23:28:25.683Z,73.80
2017-07-28T23:30:53.972Z,74.60
2017-07-28T23:33:22.244Z,75.30
2017-07-28T23:35:50.557Z,75.50
2017-07-28T23:38:19.584Z,75.90
2017-07-28T23:40:47.860Z,75.80
2017-07-28T23:43:16.168Z,76.60
2017-07-28T23:45:44.444Z,76.90
2017-07-28T23:48:12.722Z,77.80
2017-07-28T23:50:41.029Z,77.80
2017-07-28T23:53:10.069Z,76.50
2017-07-28T23:55:38.328Z,75.90
2017-07-28T23:58:06.632Z,75.20
